createdAt,value
2023-04-04T00:01:40.386Z,8.90
2023-04-04T00:04:08.683Z,8.87
2023-04-04T00:06:36.106Z,8.86
2023-04-04T00:09:07.106Z,8.87
2023-04-04T00:11:38.635Z,8.91
2023-04-04T00:14:27.104Z,8.96
2023-04-04T00:16:54.994Z,8.95
2023-04-04T00:19:33.817Z,9.01
2023-04-04T00:22:06.489Z,8.98
2023-04-04T00:24:34.280Z,8.89
2023-04-04T00:27:11.932Z,8.94
2023-04-04T00:29:51.602Z,8.94
2023-04-04T00:32:19.927Z,8.89
2023-04-04T00:34:49.848Z,8.84
2023-04-04T00:37:29.610Z,8.87
2023-04-04T00:40:03.203Z,8.91
2023-04-04T00:42:34.808Z,8.89
2023-04-04T00:45:09.990Z,8.94
2023-04-04T00:47:38.826Z,9.02
2023-04-04T00:50:10.913Z,8.98
2023-04-04T00:52:38.102Z,9.08
2023-04-04T00:55:06.369Z,8.97
2023-04-04T00:57:35.601Z,9.01
2023-04-04T01:00:28.154Z,8.98
2023-04-04T01:03:04.348Z,9.02
2023-04-04T01:05:32.522Z,9.02
2023-04-04T01:08:04.661Z,9.09
2023-04-04T01:10:33.139Z,9.13
2023-04-04T01:13:07.477Z,9.17
2023-04-04T01:15:46.869Z,9.12
2023-04-04T01:18:17.976Z,9.15
2023-04-04T01:21:13.852Z,9.15
2023-04-04T01:24:10.557Z,9.22
2023-04-04T01:27:12.395Z,9.18
2023-04-04T01:29:42.922Z,9.23
2023-04-04T01:33:01.256Z,9.20
2023-04-04T01:35:40.757Z,9.29
2023-04-04T01:38:32.864Z,9.23
2023-04-04T01:41:12.691Z,9.19
2023-04-04T01:43:39.486Z,9.13
2023-04-04T01:46:07.104Z,9.17
2023-04-04T01:48:34.367Z,9.20
2023-04-04T01:51:02.992Z,9.21
2023-04-04T01:53:30.112Z,9.25
2023-04-04T01:56:00.512Z,9.25
2023-04-04T01:58:27.623Z,9.33
2023-04-04T02:00:59.618Z,9.31
2023-04-04T02:03:27.582Z,9.28
2023-04-04T02:05:57.472Z,9.29
2023-04-04T02:08:24.372Z,9.26
2023-04-04T02:10:51.470Z,9.25
2023-04-04T02:13:18.708Z,9.16
2023-04-04T02:15:52.038Z,9.24
2023-04-04T02:18:22.637Z,9.24
2023-04-04T02:20:59.492Z,9.24
2023-04-04T02:23:27.349Z,9.09
2023-04-04T02:26:00.225Z,9.21
2023-04-04T02:28:31.402Z,9.15
2023-04-04T02:31:15.693Z,9.11
2023-04-04T02:33:48.914Z,9.13
2023-04-04T02:36:28.874Z,9.18
2023-04-04T02:38:59.126Z,9.15
2023-04-04T02:41:29.632Z,9.15
2023-04-04T02:43:57.393Z,9.04
2023-04-04T02:46:27.605Z,9.05
2023-04-04T02:48:55.577Z,9.03
2023-04-04T02:51:25.950Z,9.04
2023-04-04T02:54:03.472Z,9.00
2023-04-04T02:56:34.115Z,8.97
2023-04-04T02:59:04.852Z,8.92
2023-04-04T03:01:32.817Z,8.98
2023-04-04T03:04:01.223Z,8.97
2023-04-04T03:06:55.350Z,8.93
2023-04-04T03:09:31.074Z,8.94
2023-04-04T03:12:03.582Z,8.92
2023-04-04T03:14:31.805Z,8.81
2023-04-04T03:17:48.931Z,8.85
2023-04-04T03:20:10.938Z,8.86
2023-04-04T03:22:48.966Z,8.81
2023-04-04T03:28:48.380Z,8.77
2023-04-04T03:31:37.190Z,8.77
2023-04-04T03:34:21.221Z,8.75
2023-04-04T03:36:53.653Z,8.69
2023-04-04T03:39:36.146Z,8.68
2023-04-04T03:42:03.194Z,8.59
2023-04-04T03:44:30.823Z,8.58
2023-04-04T03:46:57.719Z,8.53
2023-04-04T03:49:39.858Z,8.51
2023-04-04T03:52:16.382Z,8.44
2023-04-04T03:55:10.357Z,8.43
2023-04-04T03:57:41.405Z,8.39
2023-04-04T04:00:12.355Z,8.33
2023-04-04T04:02:48.825Z,8.37
2023-04-04T04:05:19.646Z,8.36
2023-04-04T04:10:56.139Z,8.32
2023-04-04T04:13:26.983Z,8.32
2023-04-04T04:15:58.029Z,8.25
2023-04-04T04:18:39.601Z,8.30
2023-04-04T04:21:07.437Z,8.18
2023-04-04T04:23:41.006Z,8.08
2023-04-04T04:26:08.986Z,8.06
2023-04-04T04:28:42.046Z,8.05
2023-04-04T04:31:13.957Z,7.94
2023-04-04T04:33:59.764Z,7.98
2023-04-04T04:36:41.377Z,7.94
2023-04-04T04:39:13.164Z,7.96
2023-04-04T04:41:40.281Z,8.01
2023-04-04T04:44:10.290Z,8.01
2023-04-04T04:46:37.434Z,8.04
2023-04-04T04:49:05.329Z,8.10
2023-04-04T04:51:32.032Z,8.13
2023-04-04T04:54:00.194Z,8.24
2023-04-04T04:56:27.790Z,8.27
2023-04-04T04:58:55.165Z,8.32
2023-04-04T05:01:22.051Z,8.36
2023-04-04T05:03:50.309Z,8.41
2023-04-04T05:06:19.356Z,8.38
2023-04-04T05:08:52.203Z,8.46
2023-04-04T05:11:19.297Z,8.48
2023-04-04T05:13:46.872Z,8.43
2023-04-04T05:16:14.341Z,8.43
2023-04-04T05:21:39.733Z,8.45
2023-04-04T05:24:07.072Z,8.42
2023-04-04T05:26:34.358Z,8.45
2023-04-04T05:29:01.910Z,8.48
2023-04-04T05:32:13.256Z,8.45
2023-04-04T05:34:48.329Z,8.43
2023-04-04T05:37:15.267Z,8.44
2023-04-04T05:39:42.399Z,8.50
2023-04-04T05:42:16.105Z,8.57
2023-04-04T05:44:42.943Z,8.62
2023-04-04T05:47:10.044Z,8.65
2023-04-04T05:49:37.116Z,8.66
2023-04-04T05:52:03.875Z,8.71
2023-04-04T05:54:33.737Z,8.76
2023-04-04T05:57:01.012Z,8.83
2023-04-04T05:59:30.641Z,8.78
2023-04-04T06:01:58.138Z,8.73
2023-04-04T06:04:31.556Z,8.70
2023-04-04T06:06:58.405Z,8.74
2023-04-04T06:09:25.532Z,8.69
2023-04-04T06:11:52.298Z,8.73
2023-04-04T06:14:19.092Z,8.64
2023-04-04T06:16:46.946Z,8.68
2023-04-04T06:19:13.735Z,8.70
2023-04-04T06:21:40.516Z,8.73
2023-04-04T06:24:07.546Z,8.82
2023-04-04T06:26:34.655Z,8.87
2023-04-04T06:29:01.422Z,8.91
2023-04-04T06:31:28.371Z,9.05
2023-04-04T06:33:55.571Z,9.07
2023-04-04T06:36:26.082Z,9.13
2023-04-04T06:38:52.935Z,9.19
2023-04-04T06:41:19.635Z,9.26
2023-04-04T06:43:49.827Z,9.28
2023-04-04T06:46:16.737Z,9.31
2023-04-04T06:48:43.601Z,9.27
2023-04-04T06:51:11.590Z,9.22
2023-04-04T06:53:41.074Z,9.20
2023-04-04T06:56:09.685Z,9.21
2023-04-04T06:58:39.175Z,9.16
2023-04-04T07:01:06.084Z,9.23
2023-04-04T07:03:32.893Z,9.21
2023-04-04T07:06:03.306Z,9.27
2023-04-04T07:08:36.870Z,9.26
2023-04-04T07:11:05.143Z,9.28
2023-04-04T07:13:33.437Z,9.27
2023-04-04T07:16:00.396Z,9.26
2023-04-04T07:18:29.342Z,9.26
2023-04-04T07:20:56.285Z,9.36
2023-04-04T07:23:23.237Z,9.38
2023-04-04T07:25:50.156Z,9.40
2023-04-04T07:28:17.171Z,9.42
2023-04-04T07:30:44.177Z,9.28
2023-04-04T07:33:11.154Z,9.20
2023-04-04T07:35:38.138Z,9.12
2023-04-04T07:38:05.280Z,9.12
2023-04-04T07:40:32.075Z,9.11
2023-04-04T07:42:58.792Z,9.11
2023-04-04T07:45:25.990Z,9.11
2023-04-04T07:47:52.844Z,8.97
2023-04-04T07:50:19.713Z,8.91
2023-04-04T07:52:56.252Z,8.91
2023-04-04T07:55:39.837Z,8.93
2023-04-04T07:58:08.531Z,8.83
2023-04-04T08:00:35.635Z,8.75
2023-04-04T08:03:02.984Z,8.61
2023-04-04T08:05:29.962Z,8.59
2023-04-04T08:08:03.106Z,8.59
2023-04-04T08:10:29.882Z,8.55
2023-04-04T08:12:56.705Z,8.55
2023-04-04T08:15:23.584Z,8.48
2023-04-04T08:17:50.514Z,8.44
2023-04-04T08:20:17.662Z,8.44
2023-04-04T08:22:44.527Z,8.29
2023-04-04T08:25:11.741Z,8.30
2023-04-04T08:27:46.090Z,8.31
2023-04-04T08:30:14.433Z,8.21
2023-04-04T08:32:43.146Z,8.23
2023-04-04T08:35:10.133Z,8.18
2023-04-04T08:37:37.465Z,8.24
2023-04-04T08:40:05.388Z,8.17
2023-04-04T08:42:33.451Z,8.02
2023-04-04T08:45:04.457Z,7.91
2023-04-04T08:47:33.560Z,7.85
2023-04-04T08:50:01.872Z,7.78
2023-04-04T08:52:29.323Z,7.76
2023-04-04T08:54:57.923Z,7.74
2023-04-04T08:57:24.752Z,7.80
2023-04-04T08:59:55.683Z,7.78
2023-04-04T09:02:34.047Z,7.84
2023-04-04T09:05:06.625Z,7.90
2023-04-04T09:07:39.405Z,7.91
2023-04-04T09:10:12.114Z,7.89
2023-04-04T09:12:44.343Z,7.95
2023-04-04T09:15:18.370Z,7.94
2023-04-04T09:17:45.173Z,8.01
2023-04-04T09:20:44.034Z,8.07
2023-04-04T09:23:15.736Z,8.10
2023-04-04T09:28:26.411Z,8.02
2023-04-04T09:30:56.608Z,8.05
2023-04-04T09:33:24.815Z,8.05
2023-04-04T09:36:10.486Z,7.94
2023-04-04T09:38:44.177Z,7.97
2023-04-04T09:41:15.384Z,8.01
2023-04-04T09:43:45.663Z,7.94
2023-04-04T09:46:12.850Z,7.76
2023-04-04T09:48:40.342Z,7.66
2023-04-04T09:51:12.508Z,7.63
2023-04-04T09:53:43.198Z,7.57
2023-04-04T09:56:13.197Z,7.44
2023-04-04T09:58:49.321Z,7.34
2023-04-04T10:01:24.627Z,7.39
2023-04-04T10:03:53.905Z,7.46
2023-04-04T10:06:21.788Z,7.49
2023-04-04T10:08:49.050Z,7.59
2023-04-04T10:11:30.235Z,7.60
2023-04-04T10:14:07.031Z,7.60
2023-04-04T10:16:48.591Z,7.69
2023-04-04T10:19:20.011Z,7.64
2023-04-04T10:21:48.409Z,7.63
2023-04-04T10:24:15.182Z,7.69
2023-04-04T10:26:42.518Z,7.77
2023-04-04T10:29:10.204Z,7.77
2023-04-04T10:31:41.991Z,7.79
2023-04-04T10:34:14.548Z,7.86
2023-04-04T10:36:51.916Z,7.90
2023-04-04T10:39:29.892Z,7.83
2023-04-04T10:41:59.160Z,7.87
2023-04-04T10:44:41.803Z,7.96
2023-04-04T10:47:18.308Z,8.07
2023-04-04T10:49:46.459Z,8.06
2023-04-04T10:52:19.018Z,8.11
2023-04-04T10:54:48.081Z,8.01
2023-04-04T10:57:15.779Z,7.88
2023-04-04T11:00:11.019Z,7.64
2023-04-04T11:02:50.443Z,7.66
2023-04-04T11:05:47.369Z,7.71
2023-04-04T11:08:20.752Z,7.73
2023-04-04T11:10:52.535Z,7.72
2023-04-04T11:13:26.184Z,7.87
2023-04-04T11:15:56.972Z,8.02
2023-04-04T11:18:45.325Z,8.23
2023-04-04T11:21:23.325Z,8.41
2023-04-04T11:23:50.542Z,8.59
2023-04-04T11:26:40.508Z,8.67
2023-04-04T11:29:14.478Z,8.80
2023-04-04T11:31:49.458Z,8.71
2023-04-04T11:34:30.537Z,8.70
2023-04-04T11:37:14.690Z,8.62
2023-04-04T11:39:56.893Z,8.73
2023-04-04T11:42:24.602Z,8.58
2023-04-04T11:44:51.348Z,8.56
2023-04-04T11:47:20.638Z,8.57
2023-04-04T11:49:47.982Z,8.54
2023-04-04T11:52:17.930Z,8.52
2023-04-04T11:54:50.519Z,8.50
2023-04-04T11:57:19.667Z,8.50
2023-04-04T11:59:48.853Z,8.49
2023-04-04T12:02:22.382Z,8.34
2023-04-04T12:04:52.464Z,8.30
2023-04-04T12:07:20.121Z,8.19
2023-04-04T12:09:48.264Z,8.12
2023-04-04T12:12:18.190Z,8.06
2023-04-04T12:14:45.446Z,7.90
2023-04-04T12:17:12.370Z,7.76
2023-04-04T12:19:40.513Z,7.71
2023-04-04T12:22:08.545Z,7.66
2023-04-04T12:24:36.578Z,7.79
2023-04-04T12:27:07.924Z,7.89
2023-04-04T12:29:37.936Z,7.76
2023-04-04T12:32:16.644Z,7.65
2023-04-04T12:34:48.644Z,7.53
2023-04-04T12:37:22.023Z,7.38
2023-04-04T12:40:06.581Z,7.26
2023-04-04T12:42:39.215Z,7.09
2023-04-04T12:45:13.349Z,7.19
2023-04-04T12:47:40.063Z,7.22
2023-04-04T12:50:26.063Z,7.16
2023-04-04T12:53:13.313Z,7.21
2023-04-04T12:55:51.438Z,7.16
2023-04-04T12:58:27.899Z,7.14
2023-04-04T13:00:56.719Z,7.22
2023-04-04T13:03:30.391Z,7.25
2023-04-04T13:06:14.254Z,7.37
2023-04-04T13:08:54.576Z,7.36
2023-04-04T13:11:21.993Z,7.33
2023-04-04T13:13:49.093Z,7.42
2023-04-04T13:16:37.509Z,7.53
2023-04-04T13:19:05.094Z,7.68
2023-04-04T13:21:35.397Z,7.72
2023-04-04T13:24:04.060Z,7.74
2023-04-04T13:26:36.856Z,7.85
2023-04-04T13:29:06.670Z,7.87
2023-04-04T13:32:08.540Z,7.85
2023-04-04T13:34:36.343Z,7.90
2023-04-04T13:37:03.659Z,7.76
2023-04-04T13:39:33.574Z,7.64
2023-04-04T13:42:16.437Z,7.49
2023-04-04T13:45:30.347Z,7.44
2023-04-04T13:48:07.445Z,7.43
2023-04-04T13:50:55.715Z,7.48
2023-04-04T13:53:28.244Z,7.44
2023-04-04T13:56:17.172Z,7.43
2023-04-04T13:58:52.633Z,7.46
2023-04-04T14:01:27.176Z,7.52
2023-04-04T14:04:13.195Z,7.61
2023-04-04T14:06:56.150Z,7.66
2023-04-04T14:09:26.744Z,7.69
2023-04-04T14:12:03.689Z,7.70
2023-04-04T14:14:41.731Z,7.73
2023-04-04T14:17:12.377Z,7.86
2023-04-04T14:20:12.094Z,7.77
2023-04-04T14:22:39.176Z,7.69
2023-04-04T14:25:12.220Z,7.60
2023-04-04T14:27:39.376Z,7.51
2023-04-04T14:30:07.355Z,7.54
2023-04-04T14:32:35.059Z,7.55
2023-04-04T14:35:01.880Z,7.45
2023-04-04T14:37:28.825Z,7.39
2023-04-04T14:39:58.699Z,7.37
2023-04-04T14:42:28.266Z,7.32
2023-04-04T14:44:55.304Z,7.32
2023-04-04T14:47:25.654Z,7.28
2023-04-04T14:49:54.801Z,7.32
2023-04-04T14:52:27.530Z,7.35
2023-04-04T14:54:55.155Z,7.41
2023-04-04T14:57:28.786Z,7.34
2023-04-04T15:00:15.997Z,7.39
2023-04-04T15:02:43.107Z,7.32
2023-04-04T15:05:10.977Z,7.34
2023-04-04T15:07:47.348Z,7.32
2023-04-04T15:10:41.390Z,7.25
2023-04-04T15:13:11.049Z,7.27
2023-04-04T15:15:42.080Z,7.23
2023-04-04T15:18:09.643Z,7.04
2023-04-04T15:20:40.166Z,7.04
2023-04-04T15:23:07.867Z,7.04
2023-04-04T15:25:34.922Z,6.99
2023-04-04T15:28:02.190Z,7.02
2023-04-04T15:30:29.684Z,6.99
2023-04-04T15:33:05.534Z,6.90
2023-04-04T15:35:32.344Z,6.87
2023-04-04T15:38:03.235Z,6.81
2023-04-04T15:43:14.596Z,6.64
2023-04-04T15:45:42.264Z,6.45
2023-04-04T15:48:09.561Z,6.33
2023-04-04T15:50:36.573Z,6.35
2023-04-04T15:53:06.211Z,6.30
2023-04-04T15:55:42.741Z,6.33
2023-04-04T15:58:18.799Z,6.33
2023-04-04T16:00:56.718Z,6.36
2023-04-04T16:03:32.664Z,6.32
2023-04-04T16:06:04.557Z,6.29
2023-04-04T16:08:31.451Z,6.34
2023-04-04T16:10:58.633Z,6.32
2023-04-04T16:13:38.501Z,6.35
2023-04-04T16:16:17.570Z,6.32
2023-04-04T16:18:48.407Z,6.21
2023-04-04T16:21:37.177Z,6.21
2023-04-04T16:24:17.035Z,6.13
2023-04-04T16:29:34.627Z,5.97
2023-04-04T16:32:13.585Z,5.91
2023-04-04T16:34:53.345Z,5.87
2023-04-04T16:37:21.216Z,5.90
2023-04-04T16:39:50.230Z,5.88
2023-04-04T16:42:59.738Z,5.94
2023-04-04T16:45:27.264Z,5.88
2023-04-04T16:47:57.183Z,5.95
2023-04-04T16:50:35.580Z,5.96
2023-04-04T16:53:09.950Z,5.89
2023-04-04T16:55:48.682Z,5.75
2023-04-04T16:58:38.335Z,5.79
2023-04-04T17:01:34.947Z,5.76
2023-04-04T17:07:14.067Z,5.61
2023-04-04T17:09:46.578Z,5.54
2023-04-04T17:12:38.603Z,5.62
2023-04-04T17:15:14.047Z,5.64
2023-04-04T17:18:13.631Z,5.67
2023-04-04T17:23:25.891Z,5.67
2023-04-04T17:25:55.246Z,5.57
2023-04-04T17:28:34.977Z,5.68
2023-04-04T17:31:05.571Z,5.72
2023-04-04T17:33:36.445Z,5.83
2023-04-04T17:36:07.631Z,5.78
2023-04-04T17:38:44.863Z,5.72
2023-04-04T17:41:13.598Z,5.44
2023-04-04T17:43:41.436Z,5.34
2023-04-04T17:46:11.564Z,5.36
2023-04-04T17:48:56.446Z,5.39
2023-04-04T17:56:58.082Z,5.53
2023-04-04T17:59:29.359Z,5.52
2023-04-04T18:05:30.433Z,5.57
2023-04-04T18:08:05.506Z,5.61
2023-04-04T18:10:42.657Z,5.65
2023-04-04T18:13:19.090Z,5.65
2023-04-04T18:16:14.465Z,5.57
2023-04-04T18:19:20.178Z,5.47
2023-04-04T18:21:53.867Z,5.43
2023-04-04T18:24:43.730Z,5.41
2023-04-04T18:27:57.358Z,5.47
2023-04-04T18:30:45.854Z,5.44
2023-04-04T18:33:14.125Z,5.48
2023-04-04T18:39:17.694Z,5.45
2023-04-04T18:42:19.509Z,5.29
2023-04-04T18:45:37.458Z,5.23
2023-04-04T18:48:18.157Z,5.08
2023-04-04T18:52:02.791Z,4.98
2023-04-04T18:54:10.960Z,4.89
2023-04-04T18:56:39.137Z,4.79
2023-04-04T18:59:12.111Z,4.73
2023-04-04T19:01:40.016Z,4.71
2023-04-04T19:07:54.784Z,4.59
2023-04-04T19:10:30.484Z,4.41
2023-04-04T19:13:17.036Z,4.43
2023-04-04T19:15:51.207Z,4.42
2023-04-04T19:18:42.110Z,4.53
2023-04-04T19:21:25.508Z,4.64
2023-04-04T19:24:25.058Z,4.56
2023-04-04T19:27:49.441Z,4.54
2023-04-04T19:31:11.903Z,4.65
2023-04-04T19:34:32.281Z,4.69
2023-04-04T19:37:27.505Z,4.60
2023-04-04T19:40:01.233Z,4.71
2023-04-04T19:42:37.303Z,4.75
2023-04-04T19:45:48.186Z,4.62
2023-04-04T19:48:51.935Z,4.53
2023-04-04T19:51:29.771Z,4.56
2023-04-04T19:54:15.724Z,4.63
2023-04-04T19:57:13.598Z,4.67
2023-04-04T20:00:49.322Z,4.62
2023-04-04T20:04:00.681Z,4.61
2023-04-04T20:06:40.779Z,4.59
2023-04-04T20:09:55.912Z,4.43
2023-04-04T20:13:02.070Z,4.47
2023-04-04T20:16:03.117Z,4.49
2023-04-04T20:22:00.810Z,4.56
2023-04-04T20:24:35.702Z,4.57
2023-04-04T20:27:09.042Z,4.62
2023-04-04T20:29:55.816Z,4.62
2023-04-04T20:32:44.796Z,4.47
2023-04-04T20:36:07.492Z,4.39
2023-04-04T20:38:48.972Z,4.28
2023-04-04T20:41:41.509Z,4.30
2023-04-04T20:44:35.716Z,4.29
2023-04-04T20:47:21.088Z,4.35
2023-04-04T20:49:57.510Z,4.31
2023-04-04T20:52:30.132Z,4.37
2023-04-04T20:55:12.226Z,4.41
2023-04-04T20:57:44.000Z,4.48
2023-04-04T21:00:32.432Z,4.38
2023-04-04T21:03:17.740Z,4.26
2023-04-04T21:05:47.307Z,4.21
2023-04-04T21:08:35.159Z,4.24
2023-04-04T21:11:02.629Z,4.18
2023-04-04T21:13:34.608Z,4.15
2023-04-04T21:16:04.238Z,4.15
2023-04-04T21:18:35.986Z,4.15
2023-04-04T21:21:13.535Z,4.11
2023-04-04T21:23:45.997Z,4.13
2023-04-04T21:26:34.861Z,4.22
2023-04-04T21:29:08.265Z,4.20
2023-04-04T21:31:44.335Z,4.23
2023-04-04T21:34:28.761Z,4.34
2023-04-04T21:37:03.115Z,4.38
2023-04-04T21:39:38.053Z,4.47
2023-04-04T21:42:09.135Z,4.53
2023-04-04T21:44:42.600Z,4.62
2023-04-04T21:47:14.684Z,4.58
2023-04-04T21:49:43.061Z,4.52
2023-04-04T21:52:14.139Z,4.56
2023-04-04T21:54:47.194Z,4.56
2023-04-04T21:57:17.511Z,4.61
2023-04-04T21:59:47.776Z,4.67
2023-04-04T22:02:19.409Z,4.58
2023-04-04T22:04:46.801Z,4.42
2023-04-04T22:07:18.309Z,4.31
2023-04-04T22:09:49.110Z,4.18
2023-04-04T22:12:24.320Z,4.17
2023-04-04T22:14:52.672Z,4.09
2023-04-04T22:17:26.384Z,4.04
2023-04-04T22:19:59.782Z,4.01
2023-04-04T22:22:31.156Z,3.92
2023-04-04T22:25:05.179Z,3.85
2023-04-04T22:27:33.295Z,3.81
2023-04-04T22:30:01.548Z,3.80
2023-04-04T22:32:28.964Z,3.76
2023-04-04T22:34:57.974Z,3.74
2023-04-04T22:37:30.399Z,3.72
2023-04-04T22:39:57.279Z,3.72
2023-04-04T22:42:30.519Z,3.80
2023-04-04T22:45:00.275Z,3.69
2023-04-04T22:47:28.772Z,3.54
2023-04-04T22:49:57.046Z,3.53
2023-04-04T22:52:29.012Z,3.48
2023-04-04T22:54:56.742Z,3.51
2023-04-04T22:57:27.282Z,3.57
2023-04-04T22:59:59.336Z,3.66
2023-04-04T23:02:29.331Z,3.65
2023-04-04T23:05:00.128Z,3.68
2023-04-04T23:07:30.075Z,3.56
2023-04-04T23:09:58.041Z,3.53
2023-04-04T23:12:32.599Z,3.45
2023-04-04T23:15:01.681Z,3.40
2023-04-04T23:17:31.185Z,3.34
2023-04-04T23:20:06.700Z,3.38
2023-04-04T23:22:35.719Z,3.36
2023-04-04T23:25:09.012Z,3.32
2023-04-04T23:27:42.638Z,3.31
2023-04-04T23:30:12.637Z,3.42
2023-04-04T23:32:48.257Z,3.42
2023-04-04T23:35:30.903Z,3.33
2023-04-04T23:38:04.123Z,3.37
2023-04-04T23:40:31.317Z,3.42
2023-04-04T23:43:08.451Z,3.43
2023-04-04T23:45:48.790Z,3.43
2023-04-04T23:48:21.755Z,3.46
2023-04-04T23:50:54.789Z,3.51
2023-04-04T23:53:27.229Z,3.57
2023-04-04T23:56:07.270Z,3.58
2023-04-04T23:58:43.734Z,3.55
